Terminal Aerodrome Forecast
Issued by NWS

Home | Current Version | Previous Version | Text Only | Print | Product List | Glossary On
Versions: 1 2 3 4 5 6 7 8 9 10 11 12 13 14 15 16 17 18 19 20 21 22 23 24 25 26 27 28 29 30 31 32 33 34
000
FTUS45 KGJT 231743
TAFRIL
TAF
KRIL 231743Z 2318/2418 07003KT P6SM -RA FEW008 BKN030 OVC060
     FM231900 16006KT P6SM VCTS BKN045CB BKN050
     FM240200 14005KT P6SM SCT060 BKN090
     FM240700 VRB03KT P6SM FEW070 SCT100=

USA.gov is the U.S. government's official web portal to all federal, state and local government web resources and services.